Golden Triangle Regional Air, Mississippi
Current Conditions -  °F | °C
As of 1:58 AM on Sunday 26 Oct 2014 (Local Time) from KCBM Reporting Station
Haze Haze  
Wind Chill: 56°   Ceiling: Unl
Heat Index: 56°   Visibility: 6mi
Dew Point: 56°   Wind: 2mph
Humidity: 100%   Direction: 140°SE
Pressure: 30.03"   Gusts: NA
Location:  33.455°N, 88.5512°W
Report Text: KCBM 260658Z AUTO 14002KT 6SM BR CLR 14/14 A3003 RMK AO2 VIS 1/2 RWY13C SLP171 T01360136 $
Loading
Personal Weather Stations






























Interactive Weather Map
Tropical Storm Tracking
New forecast layout! Learn more

10-Day Weather Forecast

Advertisements
Track Severe Weather on mobile